sensor_id;sensor_type;location;lat;lon;timestamp;temperature;humidity
18173;DHT22;9211;48.818;9.312;2023-05-10T00:00:34;15.80;99.90
18173;DHT22;9211;48.818;9.312;2023-05-10T00:03:01;15.90;99.90
18173;DHT22;9211;48.818;9.312;2023-05-10T00:05:30;15.90;99.90
18173;DHT22;9211;48.818;9.312;2023-05-10T00:07:57;15.80;99.90
18173;DHT22;9211;48.818;9.312;2023-05-10T00:10:23;15.70;99.90
18173;DHT22;9211;48.818;9.312;2023-05-10T00:12:50;15.60;99.90
18173;DHT22;9211;48.818;9.312;2023-05-10T00:15:19;15.40;99.90
18173;DHT22;9211;48.818;9.312;2023-05-10T00:17:46;15.50;99.90
18173;DHT22;9211;48.818;9.312;2023-05-10T00:20:13;15.30;99.90
18173;DHT22;9211;48.818;9.312;2023-05-10T00:22:40;15.20;99.90
18173;DHT22;9211;48.818;9.312;2023-05-10T00:25:08;15.20;99.90
18173;DHT22;9211;48.818;9.312;2023-05-10T00:27:35;15.10;99.90
18173;DHT22;9211;48.818;9.312;2023-05-10T00:30:03;15.10;99.90
18173;DHT22;9211;48.818;9.312;2023-05-10T00:32:31;15.10;99.90
18173;DHT22;9211;48.818;9.312;2023-05-10T00:34:58;15.10;99.90
18173;DHT22;9211;48.818;9.312;2023-05-10T00:37:26;15.10;99.90
18173;DHT22;9211;48.818;9.312;2023-05-10T00:39:54;15.00;99.90
18173;DHT22;9211;48.818;9.312;2023-05-10T00:42:21;14.90;99.90
18173;DHT22;9211;48.818;9.312;2023-05-10T00:44:48;14.90;99.90
18173;DHT22;9211;48.818;9.312;2023-05-10T00:47:16;14.90;99.90
18173;DHT22;9211;48.818;9.312;2023-05-10T00:49:45;14.90;99.90
18173;DHT22;9211;48.818;9.312;2023-05-10T00:52:12;14.90;99.90
18173;DHT22;9211;48.818;9.312;2023-05-10T00:54:39;14.90;99.90
18173;DHT22;9211;48.818;9.312;2023-05-10T00:57:06;14.80;99.90
18173;DHT22;9211;48.818;9.312;2023-05-10T00:59:33;14.80;99.90
18173;DHT22;9211;48.818;9.312;2023-05-10T01:02:00;14.90;99.90
18173;DHT22;9211;48.818;9.312;2023-05-10T01:04:30;14.80;99.90
18173;DHT22;9211;48.818;9.312;2023-05-10T01:06:58;14.80;99.90
18173;DHT22;9211;48.818;9.312;2023-05-10T01:09:25;14.80;99.90
18173;DHT22;9211;48.818;9.312;2023-05-10T01:11:53;14.70;99.90
18173;DHT22;9211;48.818;9.312;2023-05-10T01:14:20;14.60;99.90
18173;DHT22;9211;48.818;9.312;2023-05-10T01:16:49;14.60;99.90
18173;DHT22;9211;48.818;9.312;2023-05-10T01:19:20;14.60;99.90
18173;DHT22;9211;48.818;9.312;2023-05-10T01:21:53;14.60;99.90
18173;DHT22;9211;48.818;9.312;2023-05-10T01:24:57;14.50;99.90
18173;DHT22;9211;48.818;9.312;2023-05-10T01:27:53;14.50;99.90
18173;DHT22;9211;48.818;9.312;2023-05-10T01:30:50;14.50;99.90
18173;DHT22;9211;48.818;9.312;2023-05-10T01:33:30;14.50;99.90
18173;DHT22;9211;48.818;9.312;2023-05-10T01:36:05;14.40;99.90
18173;DHT22;9211;48.818;9.312;2023-05-10T01:38:38;14.40;99.90
18173;DHT22;9211;48.818;9.312;2023-05-10T01:41:13;14.40;99.90
18173;DHT22;9211;48.818;9.312;2023-05-10T01:43:48;14.30;99.90
18173;DHT22;9211;48.818;9.312;2023-05-10T01:46:27;14.40;99.90
18173;DHT22;9211;48.818;9.312;2023-05-10T01:48:58;14.40;99.90
18173;DHT22;9211;48.818;9.312;2023-05-10T01:51:31;14.40;99.90
18173;DHT22;9211;48.818;9.312;2023-05-10T01:54:04;14.40;99.90
18173;DHT22;9211;48.818;9.312;2023-05-10T01:56:33;14.40;99.90
18173;DHT22;9211;48.818;9.312;2023-05-10T01:59:05;14.40;99.90
18173;DHT22;9211;48.818;9.312;2023-05-10T02:01:33;14.40;99.90
18173;DHT22;9211;48.818;9.312;2023-05-10T02:04:05;14.40;99.90
18173;DHT22;9211;48.818;9.312;2023-05-10T02:06:33;14.40;99.90
18173;DHT22;9211;48.818;9.312;2023-05-10T02:09:03;14.40;99.90
18173;DHT22;9211;48.818;9.312;2023-05-10T02:11:31;14.40;99.90
18173;DHT22;9211;48.818;9.312;2023-05-10T02:13:59;14.40;99.90
18173;DHT22;9211;48.818;9.312;2023-05-10T02:16:28;14.40;99.90
18173;DHT22;9211;48.818;9.312;2023-05-10T02:18:57;14.40;99.90
18173;DHT22;9211;48.818;9.312;2023-05-10T02:21:28;14.40;99.90
18173;DHT22;9211;48.818;9.312;2023-05-10T02:23:57;14.40;99.90
18173;DHT22;9211;48.818;9.312;2023-05-10T02:26:25;14.40;99.90
18173;DHT22;9211;48.818;9.312;2023-05-10T02:28:53;14.40;99.90
18173;DHT22;9211;48.818;9.312;2023-05-10T02:31:22;14.40;99.90
18173;DHT22;9211;48.818;9.312;2023-05-10T02:33:50;14.30;99.90
18173;DHT22;9211;48.818;9.312;2023-05-10T02:36:20;14.30;99.90
18173;DHT22;9211;48.818;9.312;2023-05-10T02:38:49;14.30;99.90
18173;DHT22;9211;48.818;9.312;2023-05-10T02:41:18;14.30;99.90
18173;DHT22;9211;48.818;9.312;2023-05-10T02:43:49;14.30;99.90
18173;DHT22;9211;48.818;9.312;2023-05-10T02:46:17;14.20;99.90
18173;DHT22;9211;48.818;9.312;2023-05-10T02:48:44;14.20;99.90
18173;DHT22;9211;48.818;9.312;2023-05-10T02:51:12;14.20;99.90
18173;DHT22;9211;48.818;9.312;2023-05-10T02:53:44;14.30;99.90
18173;DHT22;9211;48.818;9.312;2023-05-10T02:56:17;14.30;99.90
18173;DHT22;9211;48.818;9.312;2023-05-10T02:58:47;14.30;99.90
18173;DHT22;9211;48.818;9.312;2023-05-10T03:01:14;14.30;99.90
18173;DHT22;9211;48.818;9.312;2023-05-10T03:03:41;14.30;99.90
18173;DHT22;9211;48.818;9.312;2023-05-10T03:06:08;14.30;99.90
18173;DHT22;9211;48.818;9.312;2023-05-10T03:08:35;14.30;99.90
18173;DHT22;9211;48.818;9.312;2023-05-10T03:11:16;14.30;99.90
18173;DHT22;9211;48.818;9.312;2023-05-10T03:13:56;14.40;99.90
18173;DHT22;9211;48.818;9.312;2023-05-10T03:16:34;14.40;99.90
18173;DHT22;9211;48.818;9.312;2023-05-10T03:19:08;14.40;99.90
18173;DHT22;9211;48.818;9.312;2023-05-10T03:21:40;14.40;99.90
18173;DHT22;9211;48.818;9.312;2023-05-10T03:24:10;14.40;99.90
18173;DHT22;9211;48.818;9.312;2023-05-10T03:26:43;14.40;99.90
18173;DHT22;9211;48.818;9.312;2023-05-10T03:29:15;14.40;99.90
18173;DHT22;9211;48.818;9.312;2023-05-10T03:31:44;14.40;99.90
18173;DHT22;9211;48.818;9.312;2023-05-10T03:34:11;14.40;99.90
18173;DHT22;9211;48.818;9.312;2023-05-10T03:36:38;14.40;99.90
18173;DHT22;9211;48.818;9.312;2023-05-10T03:39:05;14.40;99.90
18173;DHT22;9211;48.818;9.312;2023-05-10T03:41:33;14.40;99.90
18173;DHT22;9211;48.818;9.312;2023-05-10T03:44:01;14.40;99.90
18173;DHT22;9211;48.818;9.312;2023-05-10T03:46:28;14.40;99.90
18173;DHT22;9211;48.818;9.312;2023-05-10T03:48:55;14.40;99.90
18173;DHT22;9211;48.818;9.312;2023-05-10T03:51:23;14.40;99.90
18173;DHT22;9211;48.818;9.312;2023-05-10T03:53:53;14.30;99.90
18173;DHT22;9211;48.818;9.312;2023-05-10T03:56:20;14.30;99.90
18173;DHT22;9211;48.818;9.312;2023-05-10T03:58:47;14.30;99.90
18173;DHT22;9211;48.818;9.312;2023-05-10T04:01:16;14.30;99.90
18173;DHT22;9211;48.818;9.312;2023-05-10T04:03:43;14.30;99.90
18173;DHT22;9211;48.818;9.312;2023-05-10T04:06:11;14.40;99.90
18173;DHT22;9211;48.818;9.312;2023-05-10T04:08:38;14.40;99.90
18173;DHT22;9211;48.818;9.312;2023-05-10T04:11:05;14.40;99.90
18173;DHT22;9211;48.818;9.312;2023-05-10T04:13:33;14.40;99.90
18173;DHT22;9211;48.818;9.312;2023-05-10T04:16:00;14.40;99.90
18173;DHT22;9211;48.818;9.312;2023-05-10T04:18:28;14.40;99.90
18173;DHT22;9211;48.818;9.312;2023-05-10T04:20:55;14.40;99.90
18173;DHT22;9211;48.818;9.312;2023-05-10T04:23:22;14.40;99.90
18173;DHT22;9211;48.818;9.312;2023-05-10T04:25:50;14.40;99.90
18173;DHT22;9211;48.818;9.312;2023-05-10T04:28:17;14.50;99.90
18173;DHT22;9211;48.818;9.312;2023-05-10T04:30:44;14.50;99.90
18173;DHT22;9211;48.818;9.312;2023-05-10T04:33:11;14.50;99.90
18173;DHT22;9211;48.818;9.312;2023-05-10T04:35:39;14.50;99.90
18173;DHT22;9211;48.818;9.312;2023-05-10T04:38:06;14.50;99.90
18173;DHT22;9211;48.818;9.312;2023-05-10T04:40:33;14.50;99.90
18173;DHT22;9211;48.818;9.312;2023-05-10T04:43:01;14.50;99.90
18173;DHT22;9211;48.818;9.312;2023-05-10T04:45:28;14.50;99.90
18173;DHT22;9211;48.818;9.312;2023-05-10T04:47:55;14.50;99.90
18173;DHT22;9211;48.818;9.312;2023-05-10T04:50:22;14.50;99.90
18173;DHT22;9211;48.818;9.312;2023-05-10T04:52:52;14.60;99.90
18173;DHT22;9211;48.818;9.312;2023-05-10T04:55:19;14.60;99.90
18173;DHT22;9211;48.818;9.312;2023-05-10T04:57:46;14.60;99.90
18173;DHT22;9211;48.818;9.312;2023-05-10T05:00:14;14.60;99.90
18173;DHT22;9211;48.818;9.312;2023-05-10T05:02:43;14.60;99.90
18173;DHT22;9211;48.818;9.312;2023-05-10T05:05:10;14.60;99.90
18173;DHT22;9211;48.818;9.312;2023-05-10T05:07:38;14.60;99.90
18173;DHT22;9211;48.818;9.312;2023-05-10T05:10:07;14.70;99.90
18173;DHT22;9211;48.818;9.312;2023-05-10T05:12:35;14.70;99.90
18173;DHT22;9211;48.818;9.312;2023-05-10T05:15:02;14.70;99.90
18173;DHT22;9211;48.818;9.312;2023-05-10T05:17:30;14.70;99.90
18173;DHT22;9211;48.818;9.312;2023-05-10T05:19:57;14.70;99.90
18173;DHT22;9211;48.818;9.312;2023-05-10T05:22:24;14.80;99.90
18173;DHT22;9211;48.818;9.312;2023-05-10T05:24:53;14.80;99.90
18173;DHT22;9211;48.818;9.312;2023-05-10T05:27:21;14.90;99.90
18173;DHT22;9211;48.818;9.312;2023-05-10T05:29:49;14.90;99.90
18173;DHT22;9211;48.818;9.312;2023-05-10T05:32:16;15.00;99.90
18173;DHT22;9211;48.818;9.312;2023-05-10T05:34:44;15.10;99.90
18173;DHT22;9211;48.818;9.312;2023-05-10T05:37:13;15.10;99.90
18173;DHT22;9211;48.818;9.312;2023-05-10T05:39:41;15.10;99.90
18173;DHT22;9211;48.818;9.312;2023-05-10T05:42:10;15.10;99.90
18173;DHT22;9211;48.818;9.312;2023-05-10T05:44:39;15.10;99.90
18173;DHT22;9211;48.818;9.312;2023-05-10T05:47:07;15.20;99.90
18173;DHT22;9211;48.818;9.312;2023-05-10T05:49:34;15.20;99.90
18173;DHT22;9211;48.818;9.312;2023-05-10T05:52:02;15.30;99.90
18173;DHT22;9211;48.818;9.312;2023-05-10T05:54:29;15.30;99.90
18173;DHT22;9211;48.818;9.312;2023-05-10T05:56:58;15.30;99.90
18173;DHT22;9211;48.818;9.312;2023-05-10T05:59:25;15.40;99.90
18173;DHT22;9211;48.818;9.312;2023-05-10T06:01:54;15.50;99.90
18173;DHT22;9211;48.818;9.312;2023-05-10T06:04:21;15.40;99.90
18173;DHT22;9211;48.818;9.312;2023-05-10T06:06:48;15.50;99.90
18173;DHT22;9211;48.818;9.312;2023-05-10T06:09:15;15.50;99.90
18173;DHT22;9211;48.818;9.312;2023-05-10T06:11:42;15.60;99.90
18173;DHT22;9211;48.818;9.312;2023-05-10T06:14:09;15.60;99.90
18173;DHT22;9211;48.818;9.312;2023-05-10T06:16:36;15.50;99.90
18173;DHT22;9211;48.818;9.312;2023-05-10T06:19:04;15.50;99.90
18173;DHT22;9211;48.818;9.312;2023-05-10T06:21:31;15.50;99.90
18173;DHT22;9211;48.818;9.312;2023-05-10T06:23:58;15.50;99.90
18173;DHT22;9211;48.818;9.312;2023-05-10T06:26:25;15.50;99.90
18173;DHT22;9211;48.818;9.312;2023-05-10T06:28:52;15.60;99.90
18173;DHT22;9211;48.818;9.312;2023-05-10T06:31:19;15.60;99.90
18173;DHT22;9211;48.818;9.312;2023-05-10T06:33:46;15.60;99.90
18173;DHT22;9211;48.818;9.312;2023-05-10T06:36:14;15.60;99.90
18173;DHT22;9211;48.818;9.312;2023-05-10T06:38:41;15.60;99.90
18173;DHT22;9211;48.818;9.312;2023-05-10T06:41:08;15.60;99.90
18173;DHT22;9211;48.818;9.312;2023-05-10T06:43:35;15.60;99.90
18173;DHT22;9211;48.818;9.312;2023-05-10T06:46:05;15.60;99.90
18173;DHT22;9211;48.818;9.312;2023-05-10T06:48:39;15.60;99.90
18173;DHT22;9211;48.818;9.312;2023-05-10T06:51:06;15.60;99.90
18173;DHT22;9211;48.818;9.312;2023-05-10T06:53:34;15.70;99.90
18173;DHT22;9211;48.818;9.312;2023-05-10T06:56:01;15.70;99.90
18173;DHT22;9211;48.818;9.312;2023-05-10T06:58:29;15.80;99.90
18173;DHT22;9211;48.818;9.312;2023-05-10T07:01:02;15.80;99.90
18173;DHT22;9211;48.818;9.312;2023-05-10T07:03:29;15.80;99.90
18173;DHT22;9211;48.818;9.312;2023-05-10T07:06:00;15.80;99.90
18173;DHT22;9211;48.818;9.312;2023-05-10T07:08:29;15.90;99.90
18173;DHT22;9211;48.818;9.312;2023-05-10T07:11:01;15.90;99.90
18173;DHT22;9211;48.818;9.312;2023-05-10T07:13:29;16.00;99.90
18173;DHT22;9211;48.818;9.312;2023-05-10T07:15:57;16.10;99.90
18173;DHT22;9211;48.818;9.312;2023-05-10T07:18:24;16.10;99.90
18173;DHT22;9211;48.818;9.312;2023-05-10T07:20:51;16.10;99.90
18173;DHT22;9211;48.818;9.312;2023-05-10T07:23:18;16.10;99.90
18173;DHT22;9211;48.818;9.312;2023-05-10T07:25:46;16.10;99.90
18173;DHT22;9211;48.818;9.312;2023-05-10T07:28:15;16.10;99.90
18173;DHT22;9211;48.818;9.312;2023-05-10T07:30:43;16.10;99.90
18173;DHT22;9211;48.818;9.312;2023-05-10T07:33:12;16.30;99.90
18173;DHT22;9211;48.818;9.312;2023-05-10T07:35:39;16.30;99.90
18173;DHT22;9211;48.818;9.312;2023-05-10T07:38:06;16.30;99.90
18173;DHT22;9211;48.818;9.312;2023-05-10T07:40:33;16.40;99.90
18173;DHT22;9211;48.818;9.312;2023-05-10T07:43:00;16.40;99.90
18173;DHT22;9211;48.818;9.312;2023-05-10T07:45:29;16.50;99.90
18173;DHT22;9211;48.818;9.312;2023-05-10T07:47:56;16.60;99.90
18173;DHT22;9211;48.818;9.312;2023-05-10T07:50:23;16.70;99.90
18173;DHT22;9211;48.818;9.312;2023-05-10T07:52:50;16.80;99.90
18173;DHT22;9211;48.818;9.312;2023-05-10T07:55:18;16.80;99.90
18173;DHT22;9211;48.818;9.312;2023-05-10T07:57:45;16.80;99.90
18173;DHT22;9211;48.818;9.312;2023-05-10T08:00:13;16.90;99.90
18173;DHT22;9211;48.818;9.312;2023-05-10T08:02:44;16.90;99.90
18173;DHT22;9211;48.818;9.312;2023-05-10T08:05:11;17.00;99.90
18173;DHT22;9211;48.818;9.312;2023-05-10T08:07:39;16.90;99.90
18173;DHT22;9211;48.818;9.312;2023-05-10T08:10:07;16.90;99.90
18173;DHT22;9211;48.818;9.312;2023-05-10T08:12:34;16.90;99.90
18173;DHT22;9211;48.818;9.312;2023-05-10T08:15:01;16.80;99.90
18173;DHT22;9211;48.818;9.312;2023-05-10T08:17:28;16.70;99.90
18173;DHT22;9211;48.818;9.312;2023-05-10T08:19:57;16.70;99.90
18173;DHT22;9211;48.818;9.312;2023-05-10T08:22:24;16.60;99.90
18173;DHT22;9211;48.818;9.312;2023-05-10T08:24:52;16.60;99.90
18173;DHT22;9211;48.818;9.312;2023-05-10T08:27:19;16.50;99.90
18173;DHT22;9211;48.818;9.312;2023-05-10T08:29:46;16.50;99.90
18173;DHT22;9211;48.818;9.312;2023-05-10T08:32:13;16.40;99.90
18173;DHT22;9211;48.818;9.312;2023-05-10T08:34:39;16.40;99.90
18173;DHT22;9211;48.818;9.312;2023-05-10T08:37:08;16.40;99.90
18173;DHT22;9211;48.818;9.312;2023-05-10T08:39:36;16.40;99.90
18173;DHT22;9211;48.818;9.312;2023-05-10T08:42:04;16.50;99.90
18173;DHT22;9211;48.818;9.312;2023-05-10T08:44:32;16.60;99.90
18173;DHT22;9211;48.818;9.312;2023-05-10T08:47:04;16.70;99.90
18173;DHT22;9211;48.818;9.312;2023-05-10T08:49:32;16.80;99.90
18173;DHT22;9211;48.818;9.312;2023-05-10T08:52:02;16.70;99.90
18173;DHT22;9211;48.818;9.312;2023-05-10T08:54:33;16.70;99.90
18173;DHT22;9211;48.818;9.312;2023-05-10T08:57:00;16.80;99.90
18173;DHT22;9211;48.818;9.312;2023-05-10T08:59:27;16.70;99.90
18173;DHT22;9211;48.818;9.312;2023-05-10T09:01:57;16.70;99.90
18173;DHT22;9211;48.818;9.312;2023-05-10T09:04:25;16.70;99.90
18173;DHT22;9211;48.818;9.312;2023-05-10T09:06:52;16.80;99.90
18173;DHT22;9211;48.818;9.312;2023-05-10T09:09:19;17.00;99.90
18173;DHT22;9211;48.818;9.312;2023-05-10T09:11:48;17.10;99.90
18173;DHT22;9211;48.818;9.312;2023-05-10T09:14:16;17.10;99.90
18173;DHT22;9211;48.818;9.312;2023-05-10T09:16:43;17.30;99.90
18173;DHT22;9211;48.818;9.312;2023-05-10T09:19:10;17.20;99.90
18173;DHT22;9211;48.818;9.312;2023-05-10T09:21:37;17.20;99.90
18173;DHT22;9211;48.818;9.312;2023-05-10T09:24:05;17.20;99.90
18173;DHT22;9211;48.818;9.312;2023-05-10T09:26:33;17.30;99.90
18173;DHT22;9211;48.818;9.312;2023-05-10T09:29:03;17.40;99.90
18173;DHT22;9211;48.818;9.312;2023-05-10T09:31:47;17.50;99.90
18173;DHT22;9211;48.818;9.312;2023-05-10T09:34:17;17.60;99.90
18173;DHT22;9211;48.818;9.312;2023-05-10T09:36:55;17.70;99.90
18173;DHT22;9211;48.818;9.312;2023-05-10T09:39:30;17.80;99.90
18173;DHT22;9211;48.818;9.312;2023-05-10T09:41:59;17.90;99.90
18173;DHT22;9211;48.818;9.312;2023-05-10T09:44:28;17.90;99.90
18173;DHT22;9211;48.818;9.312;2023-05-10T09:46:55;18.00;99.90
18173;DHT22;9211;48.818;9.312;2023-05-10T09:49:22;18.00;99.90
18173;DHT22;9211;48.818;9.312;2023-05-10T09:52:00;18.00;99.90
18173;DHT22;9211;48.818;9.312;2023-05-10T09:54:28;17.90;99.90
18173;DHT22;9211;48.818;9.312;2023-05-10T09:56:55;18.00;99.90
18173;DHT22;9211;48.818;9.312;2023-05-10T09:59:25;18.00;99.90
18173;DHT22;9211;48.818;9.312;2023-05-10T10:01:56;18.00;99.90
18173;DHT22;9211;48.818;9.312;2023-05-10T10:04:23;17.80;99.90
18173;DHT22;9211;48.818;9.312;2023-05-10T10:07:01;17.60;99.90
18173;DHT22;9211;48.818;9.312;2023-05-10T10:09:28;17.60;99.90
18173;DHT22;9211;48.818;9.312;2023-05-10T10:11:55;17.50;99.90
18173;DHT22;9211;48.818;9.312;2023-05-10T10:14:23;17.60;99.90
18173;DHT22;9211;48.818;9.312;2023-05-10T10:16:50;17.50;99.90
18173;DHT22;9211;48.818;9.312;2023-05-10T10:19:20;17.40;99.90
18173;DHT22;9211;48.818;9.312;2023-05-10T10:21:47;17.30;99.90
18173;DHT22;9211;48.818;9.312;2023-05-10T10:24:14;17.20;99.90
18173;DHT22;9211;48.818;9.312;2023-05-10T10:26:42;17.10;99.90
18173;DHT22;9211;48.818;9.312;2023-05-10T10:29:18;17.10;99.90
18173;DHT22;9211;48.818;9.312;2023-05-10T10:31:52;17.30;99.90
18173;DHT22;9211;48.818;9.312;2023-05-10T10:34:26;17.40;99.90
18173;DHT22;9211;48.818;9.312;2023-05-10T10:36:55;17.50;99.90
18173;DHT22;9211;48.818;9.312;2023-05-10T10:39:23;17.50;99.90
18173;DHT22;9211;48.818;9.312;2023-05-10T10:41:52;17.40;99.90
18173;DHT22;9211;48.818;9.312;2023-05-10T10:44:23;17.40;99.90
18173;DHT22;9211;48.818;9.312;2023-05-10T10:47:01;17.40;99.90
18173;DHT22;9211;48.818;9.312;2023-05-10T10:49:30;17.40;99.90
18173;DHT22;9211;48.818;9.312;2023-05-10T10:52:14;17.40;99.90
18173;DHT22;9211;48.818;9.312;2023-05-10T10:54:49;17.40;99.90
18173;DHT22;9211;48.818;9.312;2023-05-10T10:57:18;17.40;99.90
18173;DHT22;9211;48.818;9.312;2023-05-10T10:59:47;17.40;99.90
18173;DHT22;9211;48.818;9.312;2023-05-10T11:02:33;17.50;99.90
18173;DHT22;9211;48.818;9.312;2023-05-10T11:08:16;17.60;99.90
18173;DHT22;9211;48.818;9.312;2023-05-10T11:11:01;17.70;99.90
18173;DHT22;9211;48.818;9.312;2023-05-10T11:13:31;17.70;99.90
18173;DHT22;9211;48.818;9.312;2023-05-10T11:15:59;17.80;99.90
18173;DHT22;9211;48.818;9.312;2023-05-10T11:18:37;17.90;99.90
18173;DHT22;9211;48.818;9.312;2023-05-10T11:21:09;18.10;99.90
18173;DHT22;9211;48.818;9.312;2023-05-10T11:23:48;17.80;99.90
18173;DHT22;9211;48.818;9.312;2023-05-10T11:26:16;17.80;99.90
18173;DHT22;9211;48.818;9.312;2023-05-10T11:28:44;17.70;99.90
18173;DHT22;9211;48.818;9.312;2023-05-10T11:31:13;17.60;99.90
18173;DHT22;9211;48.818;9.312;2023-05-10T11:33:44;17.60;99.90
18173;DHT22;9211;48.818;9.312;2023-05-10T11:36:14;17.50;99.90
18173;DHT22;9211;48.818;9.312;2023-05-10T11:38:42;17.30;99.90
18173;DHT22;9211;48.818;9.312;2023-05-10T11:41:09;17.40;99.90
18173;DHT22;9211;48.818;9.312;2023-05-10T11:43:37;17.40;99.90
18173;DHT22;9211;48.818;9.312;2023-05-10T11:46:05;17.40;99.90
18173;DHT22;9211;48.818;9.312;2023-05-10T11:48:33;17.40;99.90
18173;DHT22;9211;48.818;9.312;2023-05-10T11:51:01;17.40;99.90
18173;DHT22;9211;48.818;9.312;2023-05-10T11:53:30;17.50;99.90
18173;DHT22;9211;48.818;9.312;2023-05-10T11:56:03;17.60;99.90
18173;DHT22;9211;48.818;9.312;2023-05-10T11:58:31;17.70;99.90
18173;DHT22;9211;48.818;9.312;2023-05-10T12:00:58;17.80;99.90
18173;DHT22;9211;48.818;9.312;2023-05-10T12:03:25;17.80;99.90
18173;DHT22;9211;48.818;9.312;2023-05-10T12:05:53;17.70;99.90
18173;DHT22;9211;48.818;9.312;2023-05-10T12:08:22;17.60;99.90
18173;DHT22;9211;48.818;9.312;2023-05-10T12:10:50;17.60;99.90
18173;DHT22;9211;48.818;9.312;2023-05-10T12:13:19;17.70;99.90
18173;DHT22;9211;48.818;9.312;2023-05-10T12:15:46;17.60;99.90
18173;DHT22;9211;48.818;9.312;2023-05-10T12:18:14;17.70;99.90
18173;DHT22;9211;48.818;9.312;2023-05-10T12:20:41;17.80;99.90
18173;DHT22;9211;48.818;9.312;2023-05-10T12:23:09;17.70;99.90
18173;DHT22;9211;48.818;9.312;2023-05-10T12:25:37;17.70;99.90
18173;DHT22;9211;48.818;9.312;2023-05-10T12:28:08;17.50;99.90
18173;DHT22;9211;48.818;9.312;2023-05-10T12:30:36;17.50;99.90
18173;DHT22;9211;48.818;9.312;2023-05-10T12:33:08;17.50;99.90
18173;DHT22;9211;48.818;9.312;2023-05-10T12:35:44;17.40;99.90
18173;DHT22;9211;48.818;9.312;2023-05-10T12:38:28;17.40;99.90
18173;DHT22;9211;48.818;9.312;2023-05-10T12:40:57;17.40;99.90
18173;DHT22;9211;48.818;9.312;2023-05-10T12:43:25;17.40;99.90
18173;DHT22;9211;48.818;9.312;2023-05-10T12:45:52;17.50;99.90
18173;DHT22;9211;48.818;9.312;2023-05-10T12:48:19;17.60;99.90
18173;DHT22;9211;48.818;9.312;2023-05-10T12:50:46;17.60;99.90
18173;DHT22;9211;48.818;9.312;2023-05-10T12:53:14;17.70;99.90
18173;DHT22;9211;48.818;9.312;2023-05-10T12:55:42;17.70;99.90
18173;DHT22;9211;48.818;9.312;2023-05-10T12:58:08;17.80;99.90
18173;DHT22;9211;48.818;9.312;2023-05-10T13:00:37;17.90;99.90
18173;DHT22;9211;48.818;9.312;2023-05-10T13:03:04;18.00;99.90
18173;DHT22;9211;48.818;9.312;2023-05-10T13:05:32;18.00;99.90
18173;DHT22;9211;48.818;9.312;2023-05-10T13:07:59;18.10;99.90
18173;DHT22;9211;48.818;9.312;2023-05-10T13:10:27;18.20;99.90
18173;DHT22;9211;48.818;9.312;2023-05-10T13:12:54;18.10;99.90
18173;DHT22;9211;48.818;9.312;2023-05-10T13:15:21;18.10;99.90
18173;DHT22;9211;48.818;9.312;2023-05-10T13:17:50;18.00;99.90
18173;DHT22;9211;48.818;9.312;2023-05-10T13:20:17;18.00;99.90
18173;DHT22;9211;48.818;9.312;2023-05-10T13:22:44;17.90;99.90
18173;DHT22;9211;48.818;9.312;2023-05-10T13:25:12;17.70;99.90
18173;DHT22;9211;48.818;9.312;2023-05-10T13:27:43;17.60;99.90
18173;DHT22;9211;48.818;9.312;2023-05-10T13:30:10;17.70;99.90
18173;DHT22;9211;48.818;9.312;2023-05-10T13:32:38;17.70;99.90
18173;DHT22;9211;48.818;9.312;2023-05-10T13:35:10;17.70;99.90
18173;DHT22;9211;48.818;9.312;2023-05-10T13:37:37;17.60;99.90
18173;DHT22;9211;48.818;9.312;2023-05-10T13:40:05;17.50;99.90
18173;DHT22;9211;48.818;9.312;2023-05-10T13:42:32;17.40;99.90
18173;DHT22;9211;48.818;9.312;2023-05-10T13:45:00;17.30;99.90
18173;DHT22;9211;48.818;9.312;2023-05-10T13:47:27;17.30;99.90
18173;DHT22;9211;48.818;9.312;2023-05-10T13:49:54;17.30;99.90
18173;DHT22;9211;48.818;9.312;2023-05-10T13:52:22;17.30;99.90
18173;DHT22;9211;48.818;9.312;2023-05-10T13:54:50;17.20;99.90
18173;DHT22;9211;48.818;9.312;2023-05-10T13:57:18;17.30;99.90
18173;DHT22;9211;48.818;9.312;2023-05-10T13:59:44;17.40;99.90
18173;DHT22;9211;48.818;9.312;2023-05-10T14:02:12;17.50;99.90
18173;DHT22;9211;48.818;9.312;2023-05-10T14:04:39;17.70;99.90
18173;DHT22;9211;48.818;9.312;2023-05-10T14:07:06;17.90;99.90
18173;DHT22;9211;48.818;9.312;2023-05-10T14:09:34;18.00;99.90
18173;DHT22;9211;48.818;9.312;2023-05-10T14:12:01;18.10;99.90
18173;DHT22;9211;48.818;9.312;2023-05-10T14:14:28;18.10;99.90
18173;DHT22;9211;48.818;9.312;2023-05-10T14:16:55;18.00;99.90
18173;DHT22;9211;48.818;9.312;2023-05-10T14:19:22;18.00;99.90
18173;DHT22;9211;48.818;9.312;2023-05-10T14:21:49;18.00;99.90
18173;DHT22;9211;48.818;9.312;2023-05-10T14:24:17;17.90;99.90
18173;DHT22;9211;48.818;9.312;2023-05-10T14:26:45;17.80;99.90
18173;DHT22;9211;48.818;9.312;2023-05-10T14:29:12;17.80;99.90
18173;DHT22;9211;48.818;9.312;2023-05-10T14:31:40;17.80;99.90
18173;DHT22;9211;48.818;9.312;2023-05-10T14:34:07;17.90;99.90
18173;DHT22;9211;48.818;9.312;2023-05-10T14:36:34;18.00;99.90
18173;DHT22;9211;48.818;9.312;2023-05-10T14:39:01;18.00;99.90
18173;DHT22;9211;48.818;9.312;2023-05-10T14:41:28;18.10;99.90
18173;DHT22;9211;48.818;9.312;2023-05-10T14:43:57;18.10;99.90
18173;DHT22;9211;48.818;9.312;2023-05-10T14:46:24;18.10;99.90
18173;DHT22;9211;48.818;9.312;2023-05-10T14:48:51;18.20;99.90
18173;DHT22;9211;48.818;9.312;2023-05-10T14:51:17;18.10;99.90
18173;DHT22;9211;48.818;9.312;2023-05-10T14:53:47;18.10;99.90
18173;DHT22;9211;48.818;9.312;2023-05-10T14:56:14;18.10;99.90
18173;DHT22;9211;48.818;9.312;2023-05-10T14:58:41;18.10;99.90
18173;DHT22;9211;48.818;9.312;2023-05-10T15:01:11;18.20;99.90
18173;DHT22;9211;48.818;9.312;2023-05-10T15:03:38;18.20;99.90
18173;DHT22;9211;48.818;9.312;2023-05-10T15:06:05;18.30;99.90
18173;DHT22;9211;48.818;9.312;2023-05-10T15:08:32;18.30;99.90
18173;DHT22;9211;48.818;9.312;2023-05-10T15:10:59;18.30;99.90
18173;DHT22;9211;48.818;9.312;2023-05-10T15:13:27;18.30;99.90
18173;DHT22;9211;48.818;9.312;2023-05-10T15:15:54;18.40;99.90
18173;DHT22;9211;48.818;9.312;2023-05-10T15:18:22;18.40;99.90
18173;DHT22;9211;48.818;9.312;2023-05-10T15:20:49;18.30;99.90
18173;DHT22;9211;48.818;9.312;2023-05-10T15:23:16;18.40;99.90
18173;DHT22;9211;48.818;9.312;2023-05-10T15:25:43;18.40;99.90
18173;DHT22;9211;48.818;9.312;2023-05-10T15:28:10;18.40;99.90
18173;DHT22;9211;48.818;9.312;2023-05-10T15:30:37;18.50;99.90
18173;DHT22;9211;48.818;9.312;2023-05-10T15:33:04;18.50;99.90
18173;DHT22;9211;48.818;9.312;2023-05-10T15:35:33;18.50;99.90
18173;DHT22;9211;48.818;9.312;2023-05-10T15:38:01;18.50;99.90
18173;DHT22;9211;48.818;9.312;2023-05-10T15:40:28;18.50;99.90
18173;DHT22;9211;48.818;9.312;2023-05-10T15:42:55;18.60;99.90
18173;DHT22;9211;48.818;9.312;2023-05-10T15:45:22;18.40;99.90
18173;DHT22;9211;48.818;9.312;2023-05-10T15:47:49;18.30;99.90
18173;DHT22;9211;48.818;9.312;2023-05-10T15:50:16;18.20;99.90
18173;DHT22;9211;48.818;9.312;2023-05-10T15:52:44;18.30;99.90
18173;DHT22;9211;48.818;9.312;2023-05-10T15:55:12;18.30;99.90
18173;DHT22;9211;48.818;9.312;2023-05-10T15:57:39;18.40;99.90